Aérodrome :
LOGIN :

S'inscrire | Disclaimer

   EN    FR    IT 

 










Légende :    VFR   VFR Marginal   IFR   IFR Intensif   IFR Très Intensif
Visi : 
Plafond : 
>= 8 km
>= 3000ft
5 à 8 km
1000 à 3000 ft
1500m à 5 km
500 à 1000 ft
800 à 1500m
200 à 500 ft
< 800m
< 200 ft
Symboles :   Orages  Brouillard  Fortes neiges  Fortes précipitations  Vent > 20 kt
SIGMETs :   Divers  Orages  Givrage  Turbulence  Onde Orograph.  Cendres Volcan.






- Altitude de l'aérodrome : 370 ft


EBBE - Beauvechain AB

DERNIER METAR :
  • 130855Z AUTO 24013KT 9999 FEW022/// SCT027/// BKN031/// 16/11 Q1013 BLU

METARs EXPIRÉS :
  • 130844Z AUTO 25013KT 9999 SCT021/// BKN028/// 15/10 Q1013 WHT
  • 130825Z AUTO 25013KT 9999 FEW018/// SCT024/// 15/11 Q1013 WHT
  • 130755Z AUTO 25012KT 9999 FEW016/// BKN030/// 14/11 Q1013 BLU
  • 130725Z AUTO 25011KT 9999 FEW017/// OVC027/// 13/11 Q1013 BLU
  • 130714Z AUTO 24009KT 9999 FEW017/// BKN025/// OVC029/// 13/11 Q1013 BLU
  • 130655Z AUTO 24009KT 9999 BKN024/// OVC029/// 13/10 Q1013 WHT
  • 130649Z AUTO 24009KT 9999 SCT024/// OVC028/// 13/10 Q1013 WHT
  • 130625Z AUTO 23010KT 9999 FEW023/// BKN029/// 12/10 Q1013 BLU
  • 130555Z AUTO 24010KT 9999 OVC026/// 12/10 Q1013 BLU
  • 130525Z AUTO 23010KT 9999 BKN025/// BKN029/// 12/10 Q1013 BLU
  • 130455Z AUTO 23009KT 9999 NCD 12/10 Q1013 BLU
  • 130425Z AUTO 22008KT 9999 FEW017/// BKN029/// 11/10 Q1013 BLU

Prévision TAF périmée.



MET'MAP, la Météo Aéronautique d'un coup d'oeil ! - Copyright ORBIFLY Décembre 2007 - Disclaimer

ORBIFLY MET'MAP TEAM :

Programmation & Développement : Alexandra Zaïnal
Sur une idée originale de : Baudouin d'Aumeries
Soutien technique & logistique : Manuel Goepfert
Assistance : Marc-Olivier Méhu




SOURCES & CREDITS :

   NOAA